createdAt,value
2022-08-21T00:01:56.924Z,26.59
2022-08-21T00:04:29.436Z,26.59
2022-08-21T00:07:01.735Z,26.62
2022-08-21T00:09:31.322Z,26.60
2022-08-21T00:12:00.733Z,26.56
2022-08-21T00:14:32.147Z,26.56
2022-08-21T00:17:01.354Z,26.57
2022-08-21T00:19:29.364Z,26.59
2022-08-21T00:22:00.123Z,26.59
2022-08-21T00:24:29.165Z,26.60
2022-08-21T00:26:58.358Z,26.60
2022-08-21T00:29:27.717Z,26.61
2022-08-21T00:31:57.345Z,26.60
2022-08-21T00:34:26.400Z,26.49
2022-08-21T00:36:55.789Z,26.50
2022-08-21T00:39:26.675Z,26.43
2022-08-21T00:41:55.768Z,26.37
2022-08-21T00:44:25.073Z,26.37
2022-08-21T00:46:54.851Z,26.33
2022-08-21T00:49:24.433Z,26.32
2022-08-21T00:51:55.512Z,26.35
2022-08-21T00:54:26.688Z,26.32
2022-08-21T00:56:59.656Z,26.31
2022-08-21T00:59:28.848Z,26.34
2022-08-21T01:01:58.083Z,26.32
2022-08-21T01:04:27.557Z,26.30
2022-08-21T01:06:57.338Z,26.24
2022-08-21T01:09:28.134Z,26.21
2022-08-21T01:11:57.541Z,26.16
2022-08-21T01:14:26.642Z,26.05
2022-08-21T01:16:55.761Z,25.86
2022-08-21T01:19:25.559Z,25.83
2022-08-21T01:21:56.369Z,25.82
2022-08-21T01:24:25.827Z,25.82
2022-08-21T01:26:55.051Z,25.90
2022-08-21T01:29:31.582Z,25.94
2022-08-21T01:32:01.325Z,25.93
2022-08-21T01:34:29.753Z,26.01
2022-08-21T01:37:00.732Z,26.06
2022-08-21T01:39:29.897Z,26.10
2022-08-21T01:41:58.973Z,26.15
2022-08-21T01:44:28.865Z,26.13
2022-08-21T01:47:01.573Z,26.12
2022-08-21T01:49:29.750Z,26.15
2022-08-21T01:52:00.492Z,26.11
2022-08-21T01:54:32.313Z,26.14
2022-08-21T01:57:01.569Z,26.12
2022-08-21T01:59:31.132Z,26.09
2022-08-21T02:02:00.657Z,26.07
2022-08-21T02:04:29.859Z,25.99
2022-08-21T02:07:05.195Z,25.97
2022-08-21T02:09:40.253Z,26.03
2022-08-21T02:12:10.083Z,26.05
2022-08-21T02:14:39.533Z,26.06
2022-08-21T02:17:11.140Z,26.05
2022-08-21T02:19:41.025Z,26.01
2022-08-21T02:22:11.959Z,26.00
2022-08-21T02:24:53.851Z,26.04
2022-08-21T02:27:26.487Z,26.03
2022-08-21T02:29:57.387Z,26.00
2022-08-21T02:32:27.895Z,25.96
2022-08-21T02:34:56.776Z,25.97
2022-08-21T02:37:27.425Z,26.02
2022-08-21T02:39:56.897Z,26.04
2022-08-21T02:42:25.991Z,26.06
2022-08-21T02:44:55.035Z,26.06
2022-08-21T02:47:24.546Z,26.08
2022-08-21T02:49:54.615Z,26.08
2022-08-21T02:52:25.134Z,26.08
2022-08-21T02:54:55.879Z,26.10
2022-08-21T02:57:29.439Z,26.08
2022-08-21T02:59:58.552Z,26.09
2022-08-21T03:02:27.896Z,26.10
2022-08-21T03:04:57.334Z,26.04
2022-08-21T03:07:29.671Z,26.06
2022-08-21T03:10:00.218Z,26.04
2022-08-21T03:12:30.224Z,26.04
2022-08-21T03:14:59.877Z,26.05
2022-08-21T03:17:31.218Z,26.07
2022-08-21T03:20:00.848Z,26.10
2022-08-21T03:22:30.812Z,26.13
2022-08-21T03:25:02.149Z,26.13
2022-08-21T03:27:35.792Z,26.14
2022-08-21T03:30:08.890Z,26.14
2022-08-21T03:32:37.261Z,26.12
2022-08-21T03:35:06.313Z,26.07
2022-08-21T03:37:35.314Z,26.07
2022-08-21T03:40:07.469Z,26.08
2022-08-21T03:42:37.009Z,26.07
2022-08-21T03:45:06.835Z,26.08
2022-08-21T03:47:36.125Z,26.02
2022-08-21T03:50:05.702Z,26.05
2022-08-21T03:52:34.808Z,26.04
2022-08-21T03:55:03.837Z,26.04
2022-08-21T03:57:34.468Z,26.03
2022-08-21T04:00:04.073Z,26.04
2022-08-21T04:02:33.791Z,26.02
2022-08-21T04:05:02.938Z,26.03
2022-08-21T04:07:32.153Z,25.96
2022-08-21T04:10:01.277Z,25.97
2022-08-21T04:12:31.267Z,26.01
2022-08-21T04:15:02.906Z,26.04
2022-08-21T04:17:31.941Z,26.02
2022-08-21T04:20:01.380Z,26.03
2022-08-21T04:22:30.739Z,26.04
2022-08-21T04:25:00.211Z,26.00
2022-08-21T04:27:29.850Z,26.01
2022-08-21T04:29:58.992Z,26.03
2022-08-21T04:32:29.010Z,26.02
2022-08-21T04:35:02.155Z,26.01
2022-08-21T04:37:31.451Z,26.03
2022-08-21T04:40:01.067Z,25.99
2022-08-21T04:42:30.360Z,25.97
2022-08-21T04:44:59.899Z,25.98
2022-08-21T04:47:52.318Z,26.02
2022-08-21T04:50:20.099Z,26.01
2022-08-21T04:52:49.140Z,25.97
2022-08-21T04:55:18.443Z,25.99
2022-08-21T04:57:49.222Z,26.00
2022-08-21T05:00:20.149Z,26.00
2022-08-21T05:02:53.335Z,25.96
2022-08-21T05:05:22.809Z,25.98
2022-08-21T05:07:53.096Z,26.00
2022-08-21T05:10:23.890Z,26.01
2022-08-21T05:12:53.094Z,25.97
2022-08-21T05:15:22.742Z,25.95
2022-08-21T05:18:00.557Z,25.97
2022-08-21T05:20:35.387Z,25.96
2022-08-21T05:23:09.752Z,25.95
2022-08-21T05:25:39.324Z,25.96
2022-08-21T05:28:08.575Z,25.97
2022-08-21T05:30:38.892Z,25.98
2022-08-21T05:33:09.368Z,25.99
2022-08-21T05:35:38.388Z,26.01
2022-08-21T05:38:16.571Z,26.00
2022-08-21T05:40:47.933Z,26.01
2022-08-21T05:43:17.164Z,26.03
2022-08-21T05:45:46.276Z,26.03
2022-08-21T05:48:17.955Z,26.03
2022-08-21T05:50:47.174Z,26.04
2022-08-21T05:53:16.452Z,26.03
2022-08-21T05:55:46.855Z,25.98
2022-08-21T05:58:16.485Z,25.96
2022-08-21T06:00:48.467Z,25.92
2022-08-21T06:03:20.313Z,25.91
2022-08-21T06:05:49.609Z,25.91
2022-08-21T06:08:19.250Z,25.91
2022-08-21T06:10:48.911Z,25.93
2022-08-21T06:13:18.639Z,25.95
2022-08-21T06:15:48.227Z,25.97
2022-08-21T06:18:17.527Z,25.98
2022-08-21T06:20:48.607Z,25.97
2022-08-21T06:23:17.845Z,25.98
2022-08-21T06:25:47.274Z,26.01
2022-08-21T06:28:21.143Z,26.02
2022-08-21T06:30:50.707Z,26.02
2022-08-21T06:33:18.710Z,26.04
2022-08-21T06:35:49.295Z,26.05
2022-08-21T06:38:19.154Z,26.04
2022-08-21T06:40:48.780Z,26.03
2022-08-21T06:43:18.988Z,25.99
2022-08-21T06:45:47.161Z,25.98
2022-08-21T06:48:20.863Z,25.99
2022-08-21T06:50:51.830Z,25.97
2022-08-21T06:53:22.276Z,25.97
2022-08-21T06:55:51.753Z,25.95
2022-08-21T06:58:21.738Z,25.93
2022-08-21T07:00:52.273Z,25.92
2022-08-21T07:03:22.362Z,25.94
2022-08-21T07:05:52.467Z,25.94
2022-08-21T07:08:21.911Z,25.96
2022-08-21T07:10:51.358Z,26.00
2022-08-21T07:13:20.816Z,26.01
2022-08-21T07:15:50.165Z,26.04
2022-08-21T07:18:19.546Z,26.04
2022-08-21T07:20:48.858Z,26.07
2022-08-21T07:23:23.666Z,26.07
2022-08-21T07:25:52.982Z,26.09
2022-08-21T07:28:24.412Z,26.05
2022-08-21T07:30:54.676Z,26.04
2022-08-21T07:33:24.211Z,26.04
2022-08-21T07:35:53.016Z,26.01
2022-08-21T07:38:24.054Z,26.01
2022-08-21T07:40:53.483Z,26.00
2022-08-21T07:43:22.678Z,26.00
2022-08-21T07:45:51.959Z,26.01
2022-08-21T07:48:21.150Z,26.01
2022-08-21T07:50:50.259Z,26.03
2022-08-21T07:53:19.803Z,26.03
2022-08-21T07:55:51.532Z,26.02
2022-08-21T07:58:20.788Z,26.04
2022-08-21T08:00:50.559Z,26.03
2022-08-21T08:03:25.607Z,26.04
2022-08-21T08:05:58.902Z,26.04
2022-08-21T08:08:28.329Z,26.01
2022-08-21T08:11:03.558Z,25.99
2022-08-21T08:13:32.835Z,25.98
2022-08-21T08:16:02.137Z,26.01
2022-08-21T08:18:31.569Z,26.02
2022-08-21T08:21:00.895Z,26.02
2022-08-21T08:23:31.867Z,26.02
2022-08-21T08:26:03.493Z,26.01
2022-08-21T08:28:32.793Z,26.02
2022-08-21T08:31:02.319Z,26.01
2022-08-21T08:33:31.429Z,26.01
2022-08-21T08:36:06.537Z,25.98
2022-08-21T08:38:37.757Z,25.97
2022-08-21T08:41:13.975Z,25.97
2022-08-21T08:43:42.705Z,25.95
2022-08-21T08:46:14.553Z,25.95
2022-08-21T08:48:53.075Z,25.95
2022-08-21T08:51:25.769Z,25.97
2022-08-21T08:53:58.041Z,25.98
2022-08-21T08:56:31.631Z,25.99
2022-08-21T08:59:04.024Z,25.99
2022-08-21T09:01:38.151Z,26.00
2022-08-21T09:04:08.039Z,26.01
2022-08-21T09:06:47.070Z,25.99
2022-08-21T09:09:27.105Z,25.98
2022-08-21T09:12:02.452Z,25.96
2022-08-21T09:14:42.043Z,25.95
2022-08-21T09:17:16.532Z,25.94
2022-08-21T09:19:49.548Z,25.95
2022-08-21T09:22:21.490Z,25.94
2022-08-21T09:24:54.116Z,25.95
2022-08-21T09:27:24.955Z,25.96
2022-08-21T09:29:55.475Z,25.98
2022-08-21T09:32:37.737Z,25.97
2022-08-21T09:35:09.773Z,25.97
2022-08-21T09:37:49.413Z,25.96
2022-08-21T09:40:24.382Z,25.95
2022-08-21T09:42:58.680Z,25.95
2022-08-21T09:45:27.904Z,25.94
2022-08-21T09:48:13.631Z,25.91
2022-08-21T09:50:42.867Z,25.90
2022-08-21T09:53:18.505Z,25.90
2022-08-21T09:56:09.210Z,25.88
2022-08-21T09:58:40.786Z,25.87
2022-08-21T10:01:15.500Z,25.84
2022-08-21T10:03:44.770Z,25.82
2022-08-21T10:06:24.277Z,25.79
2022-08-21T10:08:53.853Z,25.79
2022-08-21T10:11:26.318Z,25.78
2022-08-21T10:14:00.327Z,25.78
2022-08-21T10:16:37.515Z,25.79
2022-08-21T10:19:10.831Z,25.78
2022-08-21T10:21:42.474Z,25.77
2022-08-21T10:24:30.477Z,25.75
2022-08-21T10:27:08.073Z,25.75
2022-08-21T10:29:47.435Z,25.72
2022-08-21T10:32:29.730Z,25.74
2022-08-21T10:35:02.257Z,25.74
2022-08-21T10:37:36.998Z,25.73
2022-08-21T10:40:14.317Z,25.75
2022-08-21T10:42:48.963Z,25.75
2022-08-21T10:45:21.948Z,25.78
2022-08-21T10:47:54.952Z,25.78
2022-08-21T10:50:32.222Z,25.78
2022-08-21T10:53:11.677Z,25.74
2022-08-21T10:55:43.715Z,25.75
2022-08-21T10:58:13.606Z,25.72
2022-08-21T11:00:45.899Z,25.75
2022-08-21T11:03:18.795Z,25.78
2022-08-21T11:05:51.161Z,25.82
2022-08-21T11:08:23.168Z,25.85
2022-08-21T11:10:58.020Z,25.84
2022-08-21T11:13:31.839Z,25.81
2022-08-21T11:16:04.913Z,25.82
2022-08-21T11:18:35.685Z,25.82
2022-08-21T11:21:17.722Z,25.83
2022-08-21T11:23:49.637Z,25.83
2022-08-21T11:26:21.130Z,25.84
2022-08-21T11:28:53.156Z,25.85
2022-08-21T11:31:37.086Z,25.84
2022-08-21T11:34:14.051Z,25.83
2022-08-21T11:36:47.445Z,25.83
2022-08-21T11:39:21.775Z,25.83
2022-08-21T11:41:56.467Z,25.82
2022-08-21T11:44:26.731Z,25.85
2022-08-21T11:47:00.681Z,25.84
2022-08-21T11:49:36.584Z,25.85
2022-08-21T11:52:11.413Z,25.82
2022-08-21T11:54:42.446Z,25.84
2022-08-21T11:57:17.111Z,25.84
2022-08-21T11:59:49.274Z,25.82
2022-08-21T12:02:21.797Z,25.83
2022-08-21T12:04:53.479Z,25.84
2022-08-21T12:07:34.043Z,25.86
2022-08-21T12:10:03.411Z,25.84
2022-08-21T12:12:33.717Z,25.80
2022-08-21T12:15:27.501Z,25.82
2022-08-21T12:18:00.637Z,25.84
2022-08-21T12:20:50.557Z,25.80
2022-08-21T12:23:28.586Z,25.74
2022-08-21T12:26:26.192Z,25.74
2022-08-21T12:29:15.214Z,25.71
2022-08-21T12:32:00.479Z,25.77
2022-08-21T12:34:37.760Z,25.74
2022-08-21T12:37:08.410Z,25.75
2022-08-21T12:39:38.900Z,25.76
2022-08-21T12:42:10.301Z,25.76
2022-08-21T12:44:44.853Z,25.78
2022-08-21T12:47:17.702Z,25.79
2022-08-21T12:49:54.748Z,25.81
2022-08-21T12:52:25.702Z,25.80
2022-08-21T12:54:57.491Z,25.83
2022-08-21T12:57:28.689Z,25.85
2022-08-21T12:59:58.934Z,25.87
2022-08-21T13:02:31.357Z,25.86
2022-08-21T13:05:08.745Z,25.84
2022-08-21T13:07:39.504Z,25.87
2022-08-21T13:10:15.723Z,25.90
2022-08-21T13:12:46.145Z,25.90
2022-08-21T13:15:15.544Z,25.88
2022-08-21T13:17:53.149Z,25.88
2022-08-21T13:20:24.779Z,25.91
2022-08-21T13:22:53.941Z,25.94
2022-08-21T13:25:26.579Z,25.96
2022-08-21T13:28:06.657Z,26.00
2022-08-21T13:30:34.906Z,26.02
2022-08-21T13:33:09.755Z,26.05
2022-08-21T13:36:03.569Z,25.99
2022-08-21T13:38:35.824Z,25.96
2022-08-21T13:41:06.903Z,25.93
2022-08-21T13:43:36.943Z,25.90
2022-08-21T13:46:11.935Z,25.94
2022-08-21T13:48:41.304Z,25.95
2022-08-21T13:51:12.174Z,25.99
2022-08-21T13:53:47.706Z,25.97
2022-08-21T13:56:24.597Z,25.98
2022-08-21T13:58:53.936Z,25.94
2022-08-21T14:01:25.004Z,25.92
2022-08-21T14:03:58.994Z,25.90
2022-08-21T14:06:30.121Z,25.85
2022-08-21T14:09:01.270Z,25.85
2022-08-21T14:11:34.263Z,25.90
2022-08-21T14:14:05.216Z,25.81
2022-08-21T14:16:45.210Z,25.80
2022-08-21T14:19:21.081Z,25.82
2022-08-21T14:21:51.606Z,25.82
2022-08-21T14:24:28.691Z,25.80
2022-08-21T14:26:59.356Z,25.80
2022-08-21T14:29:32.690Z,25.84
2022-08-21T14:32:24.475Z,25.85
2022-08-21T14:34:54.840Z,25.88
2022-08-21T14:37:26.560Z,25.84
2022-08-21T14:39:55.854Z,25.87
2022-08-21T14:42:24.688Z,25.91
2022-08-21T14:44:54.159Z,25.91
2022-08-21T14:47:23.621Z,25.90
2022-08-21T14:49:54.930Z,25.94
2022-08-21T14:52:25.608Z,25.97
2022-08-21T14:54:55.008Z,25.98
2022-08-21T14:57:31.715Z,25.99
2022-08-21T15:00:02.032Z,25.99
2022-08-21T15:02:31.861Z,25.98
2022-08-21T15:05:01.143Z,25.97
2022-08-21T15:07:34.446Z,25.97
2022-08-21T15:10:03.924Z,26.01
2022-08-21T15:12:33.320Z,26.01
2022-08-21T15:15:02.837Z,25.98
2022-08-21T15:17:32.536Z,25.99
2022-08-21T15:20:01.704Z,25.98
2022-08-21T15:22:32.595Z,25.98
2022-08-21T15:25:03.615Z,25.94
2022-08-21T15:27:33.133Z,26.01
2022-08-21T15:30:02.441Z,26.01
2022-08-21T15:32:31.663Z,25.95
2022-08-21T15:35:00.856Z,25.96
2022-08-21T15:37:30.280Z,25.99
2022-08-21T15:40:00.945Z,25.97
2022-08-21T15:42:30.206Z,25.98
2022-08-21T15:44:59.715Z,25.95
2022-08-21T15:47:31.673Z,25.96
2022-08-21T15:50:00.785Z,25.94
2022-08-21T15:52:29.953Z,25.94
2022-08-21T15:55:03.785Z,25.92
2022-08-21T15:57:33.549Z,25.90
2022-08-21T16:00:11.081Z,25.84
2022-08-21T16:02:40.171Z,25.86
2022-08-21T16:05:11.357Z,25.89
2022-08-21T16:07:41.943Z,25.88
2022-08-21T16:10:12.545Z,25.84
2022-08-21T16:12:44.080Z,25.87
2022-08-21T16:15:20.214Z,25.87
2022-08-21T16:17:50.376Z,25.86
2022-08-21T16:20:21.334Z,25.85
2022-08-21T16:22:49.457Z,25.86
2022-08-21T16:25:20.434Z,25.85
2022-08-21T16:27:53.634Z,25.83
2022-08-21T16:30:26.664Z,25.77
2022-08-21T16:32:55.930Z,25.78
2022-08-21T16:35:25.189Z,25.72
2022-08-21T16:37:54.651Z,25.71
2022-08-21T16:40:27.427Z,25.75
2022-08-21T16:42:56.851Z,25.73
2022-08-21T16:45:28.808Z,25.64
2022-08-21T16:48:04.456Z,25.67
2022-08-21T16:50:33.771Z,25.71
2022-08-21T16:53:02.985Z,25.73
2022-08-21T16:55:38.397Z,25.73
2022-08-21T16:58:11.403Z,25.64
2022-08-21T17:00:40.596Z,25.66
2022-08-21T17:03:10.747Z,25.58
2022-08-21T17:05:40.223Z,25.63
2022-08-21T17:08:09.968Z,25.64
2022-08-21T17:10:48.416Z,25.69
2022-08-21T17:13:17.958Z,25.70
2022-08-21T17:15:47.190Z,25.62
2022-08-21T17:18:17.562Z,25.66
2022-08-21T17:20:47.674Z,25.62
2022-08-21T17:23:17.395Z,25.60
2022-08-21T17:25:49.526Z,25.62
2022-08-21T17:28:20.798Z,25.60
2022-08-21T17:30:50.288Z,25.52
2022-08-21T17:33:21.797Z,25.61
2022-08-21T17:35:51.339Z,25.62
2022-08-21T17:38:20.851Z,25.62
2022-08-21T17:40:55.304Z,25.61
2022-08-21T17:43:24.697Z,25.63
2022-08-21T17:45:53.547Z,25.66
2022-08-21T17:48:25.460Z,25.59
2022-08-21T17:50:59.871Z,25.52
2022-08-21T17:53:31.613Z,25.56
2022-08-21T17:56:07.886Z,25.62
2022-08-21T17:58:37.380Z,25.66
2022-08-21T18:01:14.349Z,25.71
2022-08-21T18:03:42.506Z,25.71
2022-08-21T18:06:15.562Z,25.64
2022-08-21T18:08:46.792Z,25.63
2022-08-21T18:11:24.006Z,25.65
2022-08-21T18:13:53.549Z,25.65
2022-08-21T18:16:23.651Z,25.71
2022-08-21T18:18:53.228Z,25.72
2022-08-21T18:21:26.563Z,25.69
2022-08-21T18:23:56.364Z,25.62
2022-08-21T18:26:30.959Z,25.62
2022-08-21T18:29:01.606Z,25.62
2022-08-21T18:31:29.766Z,25.66
2022-08-21T18:33:59.140Z,25.69
2022-08-21T18:36:27.612Z,25.63
2022-08-21T18:39:32.694Z,25.61
2022-08-21T18:41:55.370Z,25.59
2022-08-21T18:44:25.235Z,25.56
2022-08-21T18:46:56.728Z,25.59
2022-08-21T18:49:28.792Z,25.61
2022-08-21T18:51:58.255Z,25.60
2022-08-21T18:54:27.859Z,25.56
2022-08-21T18:56:59.966Z,25.59
2022-08-21T18:59:35.183Z,25.56
2022-08-21T19:02:08.001Z,25.53
2022-08-21T19:04:44.324Z,25.54
2022-08-21T19:07:14.757Z,25.53
2022-08-21T19:09:56.990Z,25.59
2022-08-21T19:12:35.125Z,25.61
2022-08-21T19:15:07.265Z,25.60
2022-08-21T19:17:36.321Z,25.60
2022-08-21T19:20:19.459Z,25.63
2022-08-21T19:22:56.640Z,25.65
2022-08-21T19:25:33.639Z,25.58
2022-08-21T19:28:11.473Z,25.59
2022-08-21T19:30:42.083Z,25.54
2022-08-21T19:33:23.255Z,25.58
2022-08-21T19:35:52.946Z,25.58
2022-08-21T19:38:24.000Z,25.59
2022-08-21T19:40:53.700Z,25.59
2022-08-21T19:43:24.778Z,25.61
2022-08-21T19:45:54.509Z,25.63
2022-08-21T19:48:24.044Z,25.60
2022-08-21T19:50:53.512Z,25.57
2022-08-21T19:53:22.731Z,25.60
2022-08-21T19:55:50.899Z,25.59
2022-08-21T19:58:34.283Z,25.60
2022-08-21T20:01:03.670Z,25.60
2022-08-21T20:03:44.116Z,25.57
2022-08-21T20:06:13.531Z,25.56
2022-08-21T20:08:44.067Z,25.50
2022-08-21T20:11:13.176Z,25.48
2022-08-21T20:13:45.720Z,25.50
2022-08-21T20:16:15.225Z,25.39
2022-08-21T20:18:44.505Z,25.40
2022-08-21T20:21:14.085Z,25.44
2022-08-21T20:23:48.953Z,25.43
2022-08-21T20:26:18.864Z,25.45
2022-08-21T20:28:50.539Z,25.47
2022-08-21T20:31:21.704Z,25.45
2022-08-21T20:33:49.939Z,25.49
2022-08-21T20:36:19.364Z,25.52
2022-08-21T20:38:48.952Z,25.49
2022-08-21T20:41:30.236Z,25.47
2022-08-21T20:44:02.080Z,25.48
2022-08-21T20:46:33.856Z,25.45
2022-08-21T20:49:03.140Z,25.42
2022-08-21T20:51:34.755Z,25.45
2022-08-21T20:54:08.316Z,25.47
2022-08-21T20:56:42.418Z,25.49
2022-08-21T20:59:20.980Z,25.46
2022-08-21T21:01:49.256Z,25.48
2022-08-21T21:04:26.962Z,25.46
2022-08-21T21:06:59.044Z,25.49
2022-08-21T21:09:41.903Z,25.50
2022-08-21T21:12:14.267Z,25.49
2022-08-21T21:14:45.852Z,25.50
2022-08-21T21:17:17.927Z,25.52
2022-08-21T21:19:58.984Z,25.53
2022-08-21T21:22:29.175Z,25.53
2022-08-21T21:25:01.404Z,25.52
2022-08-21T21:27:34.796Z,25.49
2022-08-21T21:30:07.073Z,25.50
2022-08-21T21:32:40.701Z,25.49
2022-08-21T21:35:12.708Z,25.47
2022-08-21T21:37:44.516Z,25.45
2022-08-21T21:40:36.735Z,25.45
2022-08-21T21:43:08.635Z,25.48
2022-08-21T21:45:43.515Z,25.49
2022-08-21T21:48:15.379Z,25.48
2022-08-21T21:50:54.184Z,25.47
2022-08-21T21:53:54.953Z,25.34
2022-08-21T21:56:35.340Z,25.38
2022-08-21T21:59:16.992Z,25.38
2022-08-21T22:01:51.769Z,25.38
2022-08-21T22:04:28.376Z,25.38
2022-08-21T22:07:03.828Z,25.36
2022-08-21T22:09:42.863Z,25.33
2022-08-21T22:12:28.629Z,25.34
2022-08-21T22:14:57.573Z,25.28
2022-08-21T22:17:37.202Z,25.28
2022-08-21T22:20:13.845Z,25.31
2022-08-21T22:22:44.841Z,25.30
2022-08-21T22:25:18.910Z,25.30
2022-08-21T22:27:48.486Z,25.31
2022-08-21T22:30:19.462Z,25.32
2022-08-21T22:32:51.131Z,25.31
2022-08-21T22:35:21.929Z,25.31
2022-08-21T22:37:51.739Z,25.30
2022-08-21T22:40:23.924Z,25.26
2022-08-21T22:43:00.860Z,25.23
2022-08-21T22:45:30.926Z,25.23
2022-08-21T22:48:05.663Z,25.27
2022-08-21T22:50:39.223Z,25.26
2022-08-21T22:53:08.131Z,25.26
2022-08-21T22:55:37.891Z,25.29
2022-08-21T22:58:09.681Z,25.30
2022-08-21T23:00:51.991Z,25.31
2022-08-21T23:03:24.804Z,25.32
2022-08-21T23:05:53.016Z,25.32
2022-08-21T23:08:26.814Z,25.33
2022-08-21T23:10:58.602Z,25.29
2022-08-21T23:13:26.706Z,25.28
2022-08-21T23:16:00.760Z,25.29
2022-08-21T23:18:33.701Z,25.22
2022-08-21T23:21:04.021Z,25.24
2022-08-21T23:23:36.910Z,25.24
2022-08-21T23:26:17.518Z,25.23
2022-08-21T23:29:04.868Z,25.21
2022-08-21T23:31:40.292Z,25.18
2022-08-21T23:34:19.607Z,25.19
2022-08-21T23:37:16.222Z,25.19
2022-08-21T23:39:51.616Z,25.18
2022-08-21T23:42:28.771Z,25.18
2022-08-21T23:44:59.478Z,25.17
2022-08-21T23:47:39.960Z,25.17
2022-08-21T23:50:13.946Z,25.19
2022-08-21T23:52:48.993Z,25.16
2022-08-21T23:55:24.734Z,25.17
2022-08-21T23:58:06.057Z,25.14
